createdAt,value
2017-09-12T00:00:19.490Z,999.19
2017-09-12T00:01:19.549Z,999.26
2017-09-12T00:02:19.687Z,999.25
2017-09-12T00:03:19.932Z,999.25
2017-09-12T00:04:20.190Z,999.26
2017-09-12T00:05:19.988Z,999.18
2017-09-12T00:06:20.040Z,999.19
2017-09-12T00:07:20.048Z,999.22
2017-09-12T00:08:20.097Z,999.25
2017-09-12T00:09:20.422Z,999.21
2017-09-12T00:10:20.453Z,999.23
2017-09-12T00:11:20.774Z,999.22
2017-09-12T00:12:20.891Z,999.31
2017-09-12T00:13:21.245Z,999.24
2017-09-12T00:14:21.541Z,999.28
2017-09-12T00:15:21.597Z,999.25
2017-09-12T00:16:21.608Z,999.29
2017-09-12T00:17:21.658Z,999.29
2017-09-12T00:18:21.669Z,999.29
2017-09-12T00:19:22.034Z,999.3
2017-09-12T00:20:22.061Z,999.31
2017-09-12T00:21:22.095Z,999.29
2017-09-12T00:22:22.124Z,999.27
2017-09-12T00:23:22.155Z,999.31
2017-09-12T00:24:22.207Z,999.34
2017-09-12T00:25:22.234Z,999.32
2017-09-12T00:26:22.245Z,999.35
2017-09-12T00:27:22.290Z,999.31
2017-09-12T00:28:22.326Z,999.31
2017-09-12T00:29:22.348Z,999.3
2017-09-12T00:30:22.401Z,999.29
2017-09-12T00:31:22.779Z,999.33
2017-09-12T00:32:22.806Z,999.33
2017-09-12T00:33:22.840Z,999.32
2017-09-12T00:34:22.894Z,999.34
2017-09-12T00:35:22.904Z,999.33
2017-09-12T00:36:22.933Z,999.31
2017-09-12T00:37:22.968Z,999.35
2017-09-12T00:38:23.438Z,999.33
2017-09-12T00:39:23.470Z,999.3
2017-09-12T00:40:23.500Z,999.32
2017-09-12T00:41:23.532Z,999.29
2017-09-12T00:42:23.561Z,999.34
2017-09-12T00:43:23.902Z,999.34
2017-09-12T00:44:23.930Z,999.37
2017-09-12T00:45:23.962Z,999.34
2017-09-12T00:46:23.996Z,999.36
2017-09-12T00:47:24.024Z,999.3
2017-09-12T00:48:24.054Z,999.34
2017-09-12T00:49:24.092Z,999.36
2017-09-12T00:50:24.140Z,999.35
2017-09-12T00:51:24.151Z,999.34
2017-09-12T00:52:24.203Z,999.34
2017-09-12T00:53:24.233Z,999.37
2017-09-12T00:54:24.313Z,999.34
2017-09-12T00:55:24.343Z,999.33
2017-09-12T00:56:24.378Z,999.33
2017-09-12T00:57:24.407Z,999.34
2017-09-12T00:58:24.437Z,999.36
2017-09-12T00:59:24.467Z,999.37
2017-09-12T01:00:24.499Z,999.36
2017-09-12T01:01:24.527Z,999.36
2017-09-12T01:02:24.561Z,999.32
2017-09-12T01:03:24.628Z,999.32
2017-09-12T01:04:24.740Z,999.36
2017-09-12T01:05:24.689Z,999.38
2017-09-12T01:06:24.767Z,999.48
2017-09-12T01:07:24.794Z,999.42
2017-09-12T01:08:24.826Z,999.44
2017-09-12T01:09:24.880Z,999.41
2017-09-12T01:10:24.888Z,999.5
2017-09-12T01:11:24.916Z,999.5
2017-09-12T01:12:24.948Z,999.46
2017-09-12T01:13:25.001Z,999.48
2017-09-12T01:14:25.356Z,999.44
2017-09-12T01:15:25.701Z,999.43
2017-09-12T01:16:25.729Z,999.44
2017-09-12T01:17:26.039Z,999.42
2017-09-12T01:18:26.067Z,999.41
2017-09-12T01:19:26.098Z,999.49
2017-09-12T01:20:26.423Z,999.5
2017-09-12T01:21:26.428Z,999.41
2017-09-12T01:22:26.477Z,999.46
2017-09-12T01:23:26.835Z,999.45
2017-09-12T01:24:26.865Z,999.47
2017-09-12T01:25:26.895Z,999.44
2017-09-12T01:26:26.928Z,999.48
2017-09-12T01:27:27.279Z,999.46
2017-09-12T01:28:27.310Z,999.45
2017-09-12T01:29:27.344Z,999.52
2017-09-12T01:30:27.758Z,999.47
2017-09-12T01:31:27.790Z,999.51
2017-09-12T01:32:27.837Z,999.53
2017-09-12T01:33:28.132Z,999.47
2017-09-12T01:34:28.162Z,999.47
2017-09-12T01:35:28.197Z,999.44
2017-09-12T01:36:28.226Z,999.43
2017-09-12T01:37:28.256Z,999.41
2017-09-12T01:38:28.313Z,999.43
2017-09-12T01:39:28.335Z,999.38
2017-09-12T01:40:28.642Z,999.32
2017-09-12T01:41:28.673Z,999.38
2017-09-12T01:42:28.702Z,999.33
2017-09-12T01:43:29.038Z,999.33
2017-09-12T01:44:29.088Z,999.38
2017-09-12T01:45:29.099Z,999.44
2017-09-12T01:46:29.131Z,999.4
2017-09-12T01:47:29.162Z,999.39
2017-09-12T01:48:29.535Z,999.43
2017-09-12T01:49:29.905Z,999.46
2017-09-12T01:50:29.930Z,999.44
2017-09-12T01:51:29.958Z,999.44
2017-09-12T01:52:29.997Z,999.5
2017-09-12T01:53:30.043Z,999.47
2017-09-12T01:54:30.055Z,999.46
2017-09-12T01:55:30.082Z,999.47
2017-09-12T01:56:30.112Z,999.48
2017-09-12T01:57:30.165Z,999.46
2017-09-12T01:58:30.194Z,999.45
2017-09-12T01:59:30.207Z,999.43
2017-09-12T02:00:30.583Z,999.43
2017-09-12T02:01:30.975Z,999.4
2017-09-12T02:02:31.570Z,999.36
2017-09-12T02:03:31.347Z,999.38
2017-09-12T02:04:31.380Z,999.35
2017-09-12T02:05:31.407Z,999.32
2017-09-12T02:06:31.438Z,999.34
2017-09-12T02:07:31.469Z,999.36
2017-09-12T02:08:31.500Z,999.34
2017-09-12T02:09:31.532Z,999.35
2017-09-12T02:10:31.851Z,999.3
2017-09-12T02:11:31.890Z,999.28
2017-09-12T02:12:31.929Z,999.3
2017-09-12T02:13:31.941Z,999.32
2017-09-12T02:14:31.975Z,999.31
2017-09-12T02:15:32.006Z,999.3
2017-09-12T02:16:32.064Z,999.3
2017-09-12T02:17:32.095Z,999.34
2017-09-12T02:18:32.142Z,999.39
2017-09-12T02:19:32.171Z,999.39
2017-09-12T02:20:32.204Z,999.35
2017-09-12T02:21:32.234Z,999.39
2017-09-12T02:22:32.539Z,999.46
2017-09-12T02:23:32.590Z,999.42
2017-09-12T02:24:32.944Z,999.42
2017-09-12T02:25:33.002Z,999.42
2017-09-12T02:26:33.046Z,999.39
2017-09-12T02:27:33.201Z,999.49
2017-09-12T02:28:33.231Z,999.49
2017-09-12T02:29:33.258Z,999.44
2017-09-12T02:30:33.291Z,999.47
2017-09-12T02:31:33.323Z,999.5
2017-09-12T02:32:33.351Z,999.5
2017-09-12T02:33:33.692Z,999.46
2017-09-12T02:34:33.724Z,999.45
2017-09-12T02:35:33.748Z,999.42
2017-09-12T02:36:33.802Z,999.4
2017-09-12T02:37:33.871Z,999.41
2017-09-12T02:38:33.902Z,999.44
2017-09-12T02:39:33.950Z,999.48
2017-09-12T02:40:33.960Z,999.41
2017-09-12T02:41:33.993Z,999.47
2017-09-12T02:42:34.042Z,999.38
2017-09-12T02:43:34.077Z,999.41
2017-09-12T02:44:34.083Z,999.38
2017-09-12T02:45:34.112Z,999.37
2017-09-12T02:46:34.144Z,999.35
2017-09-12T02:47:34.176Z,999.33
2017-09-12T02:48:34.206Z,999.34
2017-09-12T02:49:34.241Z,999.34
2017-09-12T02:50:34.267Z,999.27
2017-09-12T02:51:34.301Z,999.32
2017-09-12T02:52:34.337Z,999.27
2017-09-12T02:53:34.671Z,999.34
2017-09-12T02:54:34.704Z,999.36
2017-09-12T02:55:34.737Z,999.36
2017-09-12T02:56:35.049Z,999.28
2017-09-12T02:57:35.083Z,999.27
2017-09-12T02:58:35.382Z,999.25
2017-09-12T02:59:35.411Z,999.33
2017-09-12T03:00:35.439Z,999.29
2017-09-12T03:01:35.471Z,999.28
2017-09-12T03:02:35.749Z,999.29
2017-09-12T03:03:35.778Z,999.31
2017-09-12T03:04:35.813Z,999.28
2017-09-12T03:05:35.840Z,999.33
2017-09-12T03:06:35.868Z,999.33
2017-09-12T03:07:35.899Z,999.28
2017-09-12T03:08:35.951Z,999.35
2017-09-12T03:09:35.961Z,999.3
2017-09-12T03:10:36.013Z,999.33
2017-09-12T03:11:36.391Z,999.31
2017-09-12T03:12:36.419Z,999.36
2017-09-12T03:13:36.448Z,999.28
2017-09-12T03:14:36.480Z,999.34
2017-09-12T03:15:36.554Z,999.33
2017-09-12T03:16:36.911Z,999.38
2017-09-12T03:17:36.939Z,999.37
2017-09-12T03:18:36.964Z,999.45
2017-09-12T03:19:36.995Z,999.39
2017-09-12T03:20:37.412Z,999.39
2017-09-12T03:21:37.420Z,999.4
2017-09-12T03:22:37.450Z,999.43
2017-09-12T03:23:37.481Z,999.35
2017-09-12T03:24:37.535Z,999.41
2017-09-12T03:25:37.905Z,999.41
2017-09-12T03:26:38.242Z,999.42
2017-09-12T03:27:38.271Z,999.42
2017-09-12T03:28:38.311Z,999.45
2017-09-12T03:29:38.355Z,999.47
2017-09-12T03:30:38.711Z,999.42
2017-09-12T03:31:39.059Z,999.39
2017-09-12T03:32:39.107Z,999.42
2017-09-12T03:33:39.118Z,999.4
2017-09-12T03:34:39.146Z,999.39
2017-09-12T03:35:39.176Z,999.4
2017-09-12T03:36:39.212Z,999.44
2017-09-12T03:37:39.557Z,999.46
2017-09-12T03:38:39.589Z,999.38
2017-09-12T03:39:39.618Z,999.48
2017-09-12T03:40:39.947Z,999.5
2017-09-12T03:41:39.976Z,999.47
2017-09-12T03:42:40.008Z,999.52
2017-09-12T03:43:40.058Z,999.55
2017-09-12T03:44:40.068Z,999.47
2017-09-12T03:45:40.118Z,999.51
2017-09-12T03:46:40.146Z,999.43
2017-09-12T03:47:40.159Z,999.44
2017-09-12T03:48:40.193Z,999.46
2017-09-12T03:49:40.218Z,999.51
2017-09-12T03:50:40.521Z,999.49
2017-09-12T03:51:40.551Z,999.48
2017-09-12T03:52:40.576Z,999.43
2017-09-12T03:53:40.920Z,999.42
2017-09-12T03:54:40.949Z,999.45
2017-09-12T03:55:41.302Z,999.52
2017-09-12T03:56:41.760Z,999.55
2017-09-12T03:57:41.790Z,999.51
2017-09-12T03:58:41.820Z,999.48
2017-09-12T03:59:41.852Z,999.5
2017-09-12T04:00:41.878Z,999.55
2017-09-12T04:01:41.915Z,999.52
2017-09-12T04:02:41.956Z,999.49
2017-09-12T04:03:41.969Z,999.59
2017-09-12T04:04:42.023Z,999.6
2017-09-12T04:05:42.030Z,999.58
2017-09-12T04:06:42.061Z,999.57
2017-09-12T04:07:42.467Z,999.57
2017-09-12T04:08:42.519Z,999.61
2017-09-12T04:09:42.555Z,999.52
2017-09-12T04:10:42.555Z,999.6
2017-09-12T04:11:42.942Z,999.64
2017-09-12T04:12:42.946Z,999.59
2017-09-12T04:13:42.974Z,999.58
2017-09-12T04:14:43.032Z,999.56
2017-09-12T04:15:43.037Z,999.58
2017-09-12T04:16:43.066Z,999.56
2017-09-12T04:17:43.117Z,999.53
2017-09-12T04:18:43.127Z,999.52
2017-09-12T04:19:43.477Z,999.49
2017-09-12T04:20:43.523Z,999.53
2017-09-12T04:21:43.562Z,999.53
2017-09-12T04:22:43.865Z,999.53
2017-09-12T04:23:43.892Z,999.54
2017-09-12T04:24:43.923Z,999.53
2017-09-12T04:25:44.275Z,999.55
2017-09-12T04:26:44.303Z,999.52
2017-09-12T04:27:44.359Z,999.54
2017-09-12T04:28:44.365Z,999.49
2017-09-12T04:29:44.420Z,999.53
2017-09-12T04:30:44.742Z,999.51
2017-09-12T04:31:45.082Z,999.54
2017-09-12T04:32:45.120Z,999.52
2017-09-12T04:33:45.460Z,999.55
2017-09-12T04:34:45.759Z,999.58
2017-09-12T04:35:45.785Z,999.61
2017-09-12T04:36:45.836Z,999.66
2017-09-12T04:37:45.846Z,999.61
2017-09-12T04:38:45.888Z,999.59
2017-09-12T04:39:45.923Z,999.65
2017-09-12T04:40:46.263Z,999.63
2017-09-12T04:41:46.289Z,999.66
2017-09-12T04:42:46.328Z,999.65
2017-09-12T04:43:46.351Z,999.71
2017-09-12T04:44:46.379Z,999.72
2017-09-12T04:45:46.702Z,999.72
2017-09-12T04:46:46.728Z,999.66
2017-09-12T04:47:46.757Z,999.71
2017-09-12T04:48:46.789Z,999.74
2017-09-12T04:49:46.845Z,999.73
2017-09-12T04:50:47.220Z,999.77
2017-09-12T04:51:47.272Z,999.75
2017-09-12T04:52:47.279Z,999.69
2017-09-12T04:53:47.342Z,999.68
2017-09-12T04:54:47.676Z,999.71
2017-09-12T04:55:47.703Z,999.75
2017-09-12T04:56:48.004Z,999.74
2017-09-12T04:57:48.032Z,999.75
2017-09-12T04:58:48.063Z,999.77
2017-09-12T04:59:48.092Z,999.78
2017-09-12T05:00:48.126Z,999.87
2017-09-12T05:01:48.157Z,999.76
2017-09-12T05:02:48.194Z,999.73
2017-09-12T05:03:48.215Z,999.72
2017-09-12T05:04:48.568Z,999.79
2017-09-12T05:05:48.578Z,999.76
2017-09-12T05:06:48.605Z,999.76
2017-09-12T05:07:48.640Z,999.8
2017-09-12T05:08:48.690Z,999.8
2017-09-12T05:09:48.731Z,999.89
2017-09-12T05:10:48.758Z,999.97
2017-09-12T05:11:48.816Z,999.97
2017-09-12T05:12:48.821Z,1000.02
2017-09-12T05:13:48.851Z,1000.03
2017-09-12T05:14:48.903Z,1000.03
2017-09-12T05:15:48.932Z,1000.01
2017-09-12T05:16:48.941Z,1000.09
2017-09-12T05:17:48.990Z,1000.05
2017-09-12T05:18:49.024Z,1000.03
2017-09-12T05:19:49.048Z,1000.02
2017-09-12T05:20:49.064Z,999.95
2017-09-12T05:21:49.113Z,1000
2017-09-12T05:22:49.130Z,1000.02
2017-09-12T05:23:49.157Z,1000.03
2017-09-12T05:24:49.209Z,1000.02
2017-09-12T05:25:49.681Z,1000.05
2017-09-12T05:26:50.086Z,1000.06
2017-09-12T05:27:50.138Z,1000.05
2017-09-12T05:28:50.441Z,1000.13
2017-09-12T05:29:50.468Z,1000.13
2017-09-12T05:30:50.496Z,1000.14
2017-09-12T05:31:50.550Z,1000.04
2017-09-12T05:32:50.887Z,1000.08
2017-09-12T05:33:50.914Z,1000.08
2017-09-12T05:34:51.245Z,1000.06
2017-09-12T05:35:51.634Z,1000.07
2017-09-12T05:36:51.672Z,1000.06
2017-09-12T05:37:51.699Z,1000.08
2017-09-12T05:38:51.711Z,1000.15
2017-09-12T05:39:51.769Z,1000.1
2017-09-12T05:40:51.779Z,1000.12
2017-09-12T05:41:51.803Z,1000.1
2017-09-12T05:42:51.837Z,1000.16
2017-09-12T05:43:51.916Z,1000.18
2017-09-12T05:44:51.925Z,1000.15
2017-09-12T05:45:52.245Z,1000.2
2017-09-12T05:46:52.273Z,1000.14
2017-09-12T05:47:52.322Z,1000.17
2017-09-12T05:48:52.357Z,1000.16
2017-09-12T05:49:52.680Z,1000.14
2017-09-12T05:50:52.707Z,1000.19
2017-09-12T05:51:52.786Z,1000.18
2017-09-12T05:52:53.085Z,1000.17
2017-09-12T05:53:53.151Z,1000.23
2017-09-12T05:54:53.180Z,1000.15
2017-09-12T05:55:53.212Z,1000.15
2017-09-12T05:56:53.257Z,1000.18
2017-09-12T05:57:53.274Z,1000.21
2017-09-12T05:58:53.306Z,1000.17
2017-09-12T05:59:53.367Z,1000.17
2017-09-12T06:00:53.401Z,1000.19
2017-09-12T06:01:53.745Z,1000.21
2017-09-12T06:02:54.355Z,1000.16
2017-09-12T06:03:54.321Z,1000.16
2017-09-12T06:04:54.693Z,1000.15
2017-09-12T06:05:54.825Z,1000.14
2017-09-12T06:06:54.900Z,1000.09
2017-09-12T06:07:54.907Z,1000.1
2017-09-12T06:08:54.964Z,1000.12
2017-09-12T06:09:54.985Z,1000.06
2017-09-12T06:10:55.003Z,1000.11
2017-09-12T06:11:55.038Z,1000.07
2017-09-12T06:12:55.081Z,1000.12
2017-09-12T06:13:55.110Z,1000.16
2017-09-12T06:14:55.146Z,1000.14
2017-09-12T06:15:55.181Z,1000.13
2017-09-12T06:16:55.207Z,1000.17
2017-09-12T06:17:55.241Z,1000.16
2017-09-12T06:18:55.313Z,1000.17
2017-09-12T06:19:55.306Z,1000.2
2017-09-12T06:20:55.359Z,1000.16
2017-09-12T06:21:55.386Z,1000.22
2017-09-12T06:22:55.411Z,1000.22
2017-09-12T06:23:55.449Z,1000.24
2017-09-12T06:24:55.462Z,1000.21
2017-09-12T06:25:55.492Z,1000.24
2017-09-12T06:26:55.523Z,1000.25
2017-09-12T06:27:55.582Z,1000.3
2017-09-12T06:28:55.934Z,1000.26
2017-09-12T06:29:56.282Z,1000.32
2017-09-12T06:30:56.312Z,1000.28
2017-09-12T06:31:56.685Z,1000.32
2017-09-12T06:32:57.082Z,1000.38
2017-09-12T06:33:57.133Z,1000.35
2017-09-12T06:34:57.145Z,1000.42
2017-09-12T06:35:57.194Z,1001.31
2017-09-12T06:36:57.545Z,1000.63
2017-09-12T06:37:57.595Z,1001.32
2017-09-12T06:38:57.607Z,1000.54
2017-09-12T06:39:57.957Z,1000.66
2017-09-12T06:40:58.029Z,1000.6
2017-09-12T06:41:58.065Z,1000.5
2017-09-12T06:42:58.092Z,1000.36
2017-09-12T06:43:58.272Z,1000.41
2017-09-12T06:44:58.805Z,1000.39
2017-09-12T06:45:58.863Z,1000.4
2017-09-12T06:46:58.851Z,1000.43
2017-09-12T06:47:58.882Z,1000.49
2017-09-12T06:48:58.922Z,1000.47
2017-09-12T06:49:58.970Z,1000.36
2017-09-12T06:50:59.006Z,1000.43
2017-09-12T06:51:59.015Z,1000.48
2017-09-12T06:52:59.051Z,1000.43
2017-09-12T06:53:59.080Z,1000.47
2017-09-12T06:54:59.139Z,1000.4
2017-09-12T06:55:59.147Z,1000.4
2017-09-12T06:56:59.179Z,1000.4
2017-09-12T06:57:59.214Z,1000.42
2017-09-12T06:58:59.246Z,1000.45
2017-09-12T06:59:59.279Z,1000.5
2017-09-12T07:00:59.319Z,1000.47
2017-09-12T07:01:59.345Z,1000.39
2017-09-12T07:02:59.383Z,1000.44
2017-09-12T07:03:59.410Z,1000.39
2017-09-12T07:04:59.446Z,1000.44
2017-09-12T07:05:59.476Z,1000.43
2017-09-12T07:06:59.839Z,1000.45
2017-09-12T07:07:59.890Z,1000.53
2017-09-12T07:08:59.926Z,1000.47
2017-09-12T07:10:00.254Z,1000.49
2017-09-12T07:11:00.632Z,1000.5
2017-09-12T07:12:00.640Z,1000.44
2017-09-12T07:13:00.676Z,1000.51
2017-09-12T07:14:00.724Z,1000.52
2017-09-12T07:15:00.756Z,1000.55
2017-09-12T07:16:00.834Z,1000.5
2017-09-12T07:17:01.140Z,1000.53
2017-09-12T07:18:01.178Z,1000.57
2017-09-12T07:19:01.210Z,1000.59
2017-09-12T07:20:01.296Z,1000.59
2017-09-12T07:21:01.317Z,1000.59
2017-09-12T07:22:01.380Z,1000.55
2017-09-12T07:23:01.431Z,1000.6
2017-09-12T07:24:01.450Z,1000.59
2017-09-12T07:25:01.470Z,1000.56
2017-09-12T07:26:01.507Z,1000.62
2017-09-12T07:27:01.541Z,1000.65
2017-09-12T07:28:01.584Z,1000.64
2017-09-12T07:29:01.606Z,1000.64
2017-09-12T07:30:01.636Z,1000.6
2017-09-12T07:31:01.678Z,1000.61
2017-09-12T07:32:01.827Z,1000.67
2017-09-12T07:33:01.835Z,1000.69
2017-09-12T07:34:02.245Z,1000.67
2017-09-12T07:35:02.960Z,1000.71
2017-09-12T07:36:02.720Z,1000.68
2017-09-12T07:37:02.753Z,1000.71
2017-09-12T07:38:03.141Z,1000.74
2017-09-12T07:39:03.194Z,1000.71
2017-09-12T07:40:03.252Z,1000.7
2017-09-12T07:41:03.288Z,1000.75
2017-09-12T07:42:03.331Z,1000.76
2017-09-12T07:43:03.349Z,1000.79
2017-09-12T07:44:03.387Z,1000.84
2017-09-12T07:45:03.442Z,1000.82
2017-09-12T07:46:03.450Z,1000.84
2017-09-12T07:47:03.487Z,1000.87
2017-09-12T07:48:03.549Z,1000.81
2017-09-12T07:49:03.723Z,1000.82
2017-09-12T07:50:03.699Z,1000.87
2017-09-12T07:51:03.738Z,1000.87
2017-09-12T07:52:03.769Z,1000.87
2017-09-12T07:53:04.217Z,1000.92
2017-09-12T07:54:04.208Z,1000.89
2017-09-12T07:55:04.285Z,1000.9
2017-09-12T07:56:04.275Z,1000.93
2017-09-12T07:57:04.306Z,1000.86
2017-09-12T07:58:04.348Z,1000.94
2017-09-12T07:59:04.426Z,1000.9
2017-09-12T08:00:05.219Z,1000.9
2017-09-12T08:01:04.490Z,1000.89
2017-09-12T08:02:04.474Z,1000.88
2017-09-12T08:03:05.239Z,1000.83
2017-09-12T08:04:04.872Z,1000.87
2017-09-12T08:05:05.447Z,1000.91
2017-09-12T08:06:05.458Z,1000.89
2017-09-12T08:07:05.547Z,1000.9
2017-09-12T08:08:05.897Z,1000.96
2017-09-12T08:09:06.015Z,1000.93
2017-09-12T08:10:06.073Z,1000.9
2017-09-12T08:11:06.060Z,1000.91
2017-09-12T08:12:06.100Z,1000.9
2017-09-12T08:13:06.509Z,1000.86
2017-09-12T08:14:06.541Z,1000.94
2017-09-12T08:15:06.569Z,1000.96
2017-09-12T08:16:06.626Z,1000.98
2017-09-12T08:17:06.912Z,1000.97
2017-09-12T08:18:06.923Z,1000.95
2017-09-12T08:19:06.739Z,1001.05
2017-09-12T08:20:06.769Z,1001.01
2017-09-12T08:21:07.209Z,1001.01
2017-09-12T08:22:07.232Z,1001.05
2017-09-12T08:23:07.568Z,1001.06
2017-09-12T08:24:07.681Z,1001.03
2017-09-12T08:25:07.771Z,1001.03
2017-09-12T08:26:08.125Z,1001.04
2017-09-12T08:27:08.175Z,1001
2017-09-12T08:28:08.248Z,1001.1
2017-09-12T08:29:08.272Z,1001.04
2017-09-12T08:30:08.444Z,1001.07
2017-09-12T08:31:08.764Z,1001.03
2017-09-12T08:32:08.870Z,1001.15
2017-09-12T08:33:08.886Z,1001.22
2017-09-12T08:34:08.933Z,1001.03
2017-09-12T08:35:08.953Z,1001.03
2017-09-12T08:36:08.985Z,1000.98
2017-09-12T08:37:09.353Z,1001.01
2017-09-12T08:38:09.387Z,1000.95
2017-09-12T08:39:09.584Z,1000.95
2017-09-12T08:40:09.620Z,1001
2017-09-12T08:41:09.982Z,1001.02
2017-09-12T08:42:10.021Z,1001.07
2017-09-12T08:43:10.057Z,1001.05
2017-09-12T08:44:10.094Z,1001.08
2017-09-12T08:45:10.471Z,1001.27
2017-09-12T08:46:10.511Z,1001.21
2017-09-12T08:47:10.548Z,1001.1
2017-09-12T08:48:10.586Z,1001.21
2017-09-12T08:49:10.667Z,1001.27
2017-09-12T08:50:11.001Z,1001.2
2017-09-12T08:51:11.367Z,1001.58
2017-09-12T08:52:11.383Z,1001.35
2017-09-12T08:53:11.461Z,1001.3
2017-09-12T08:54:11.493Z,1001.35
2017-09-12T08:55:11.509Z,1001.37
2017-09-12T08:56:11.917Z,1001.25
2017-09-12T08:57:11.930Z,1001.25
2017-09-12T08:58:11.983Z,1001.28
2017-09-12T08:59:12.040Z,1001.43
2017-09-12T09:00:12.075Z,1001.3
2017-09-12T09:01:12.093Z,1001.28
2017-09-12T09:02:12.299Z,1001.18
2017-09-12T09:03:12.369Z,1001.24
2017-09-12T09:04:12.356Z,1001.14
2017-09-12T09:05:12.388Z,1001.14
2017-09-12T09:06:12.435Z,1001.08
2017-09-12T09:07:12.905Z,1001.1
2017-09-12T09:08:12.929Z,1001.25
2017-09-12T09:09:12.993Z,1001.28
2017-09-12T09:10:13.034Z,1001.33
2017-09-12T09:11:13.068Z,1001.28
2017-09-12T09:12:13.109Z,1001.33
2017-09-12T09:13:13.164Z,1001.41
2017-09-12T09:14:13.200Z,1001.41
2017-09-12T09:15:13.247Z,1001.33
2017-09-12T09:16:13.276Z,1001.33
2017-09-12T09:17:13.670Z,1001.38
2017-09-12T09:18:13.691Z,1001.47
2017-09-12T09:19:13.711Z,1001.44
2017-09-12T09:20:13.777Z,1001.37
2017-09-12T09:21:13.839Z,1001.62
2017-09-12T09:22:13.856Z,1001.5
2017-09-12T09:23:13.890Z,1001.76
2017-09-12T09:24:13.949Z,1001.83
2017-09-12T09:25:14.293Z,1001.86
2017-09-12T09:26:14.354Z,1001.86
2017-09-12T09:27:14.392Z,1001.85
2017-09-12T09:28:14.405Z,1001.9
2017-09-12T09:29:14.450Z,1001.98
2017-09-12T09:30:14.530Z,1001.93
2017-09-12T09:31:14.546Z,1001.9
2017-09-12T09:32:14.943Z,1001.68
2017-09-12T09:33:14.987Z,1001.86
2017-09-12T09:34:15.045Z,1001.85
2017-09-12T09:35:15.050Z,1001.84
2017-09-12T09:36:15.091Z,1001.82
2017-09-12T09:37:15.137Z,1001.92
2017-09-12T09:38:15.503Z,1001.89
2017-09-12T09:39:15.230Z,1002.02
2017-09-12T09:40:15.603Z,1001.98
2017-09-12T09:41:15.620Z,1002.02
2017-09-12T09:42:16.012Z,1001.55
2017-09-12T09:43:16.026Z,1001.79
2017-09-12T09:44:16.070Z,1001.61
2017-09-12T09:45:16.388Z,1001.54
2017-09-12T09:46:16.176Z,1001.61
2017-09-12T09:47:16.215Z,1001.62
2017-09-12T09:48:16.234Z,1001.68
2017-09-12T09:49:16.350Z,1001.58
2017-09-12T09:50:16.315Z,1001.5
2017-09-12T09:51:16.375Z,1001.53
2017-09-12T09:52:16.401Z,1001.59
2017-09-12T09:53:16.434Z,1001.54
2017-09-12T09:54:16.477Z,1001.49
2017-09-12T09:55:16.821Z,1001.5
2017-09-12T09:56:16.868Z,1001.56
2017-09-12T09:57:16.980Z,1001.52
2017-09-12T09:58:16.937Z,1001.58
2017-09-12T09:59:16.977Z,1001.59
2017-09-12T10:00:17.030Z,1001.52
2017-09-12T10:01:17.076Z,1001.54
2017-09-12T10:02:17.092Z,1001.5
2017-09-12T10:03:17.168Z,1001.48
2017-09-12T10:04:17.219Z,1001.58
2017-09-12T10:05:17.229Z,1001.6
2017-09-12T10:06:17.650Z,1001.62
2017-09-12T10:07:17.708Z,1001.6
2017-09-12T10:08:17.752Z,1001.65
2017-09-12T10:09:18.167Z,1001.72
2017-09-12T10:10:18.205Z,1001.7
2017-09-12T10:11:18.652Z,1001.71
2017-09-12T10:12:18.690Z,1001.82
2017-09-12T10:13:18.787Z,1001.74
2017-09-12T10:14:18.816Z,1001.83
2017-09-12T10:15:19.160Z,1001.88
2017-09-12T10:16:18.904Z,1001.78
2017-09-12T10:17:18.932Z,1001.78
2017-09-12T10:18:18.973Z,1001.84
2017-09-12T10:19:19.331Z,1001.86
2017-09-12T10:20:19.343Z,1001.92
2017-09-12T10:21:19.399Z,1001.88
2017-09-12T10:22:19.436Z,1001.86
2017-09-12T10:23:19.767Z,1001.99
2017-09-12T10:24:19.804Z,1001.82
2017-09-12T10:25:19.874Z,1001.86
2017-09-12T10:26:19.892Z,1001.81
2017-09-12T10:27:19.942Z,1001.79
2017-09-12T10:28:19.999Z,1001.76
2017-09-12T10:29:20.017Z,1001.72
2017-09-12T10:30:20.272Z,1001.83
2017-09-12T10:31:20.100Z,1001.8
2017-09-12T10:32:20.130Z,1001.81
2017-09-12T10:33:20.168Z,1001.8
2017-09-12T10:34:20.207Z,1001.88
2017-09-12T10:35:20.611Z,1001.83
2017-09-12T10:36:20.620Z,1001.71
2017-09-12T10:37:20.975Z,1001.65
2017-09-12T10:38:21.005Z,1001.72
2017-09-12T10:39:21.048Z,1001.76
2017-09-12T10:40:21.084Z,1002.06
2017-09-12T10:41:21.115Z,1003.06
2017-09-12T10:42:21.163Z,1002.86
2017-09-12T10:43:21.560Z,1004.23
2017-09-12T10:44:21.920Z,1006.83
2017-09-12T10:45:21.960Z,1005.72
2017-09-12T10:46:22.263Z,1006.85
2017-09-12T10:47:22.294Z,1004.52
2017-09-12T10:48:22.336Z,1004.25
2017-09-12T10:49:22.373Z,1002.41
2017-09-12T10:50:22.415Z,1002.16
2017-09-12T10:51:22.784Z,1002.17
2017-09-12T10:52:22.800Z,1002.11
2017-09-12T10:53:22.853Z,1001.99
2017-09-12T10:54:22.890Z,1001.88
2017-09-12T10:55:22.927Z,1001.87
2017-09-12T10:56:23.243Z,1001.86
2017-09-12T10:57:23.281Z,1001.78
2017-09-12T10:58:23.316Z,1002.01
2017-09-12T10:59:23.371Z,1001.81
2017-09-12T11:00:23.732Z,1001.86
2017-09-12T11:01:24.126Z,1001.71
2017-09-12T11:02:24.178Z,1001.63
2017-09-12T11:03:24.528Z,1001.63
2017-09-12T11:04:24.567Z,1001.66
2017-09-12T11:05:24.606Z,1001.71
2017-09-12T11:06:24.660Z,1001.69
2017-09-12T11:07:24.696Z,1001.64
2017-09-12T11:08:25.080Z,1001.77
2017-09-12T11:09:25.112Z,1001.68
2017-09-12T11:10:25.512Z,1001.68
2017-09-12T11:11:25.549Z,1001.67
2017-09-12T11:12:25.590Z,1001.66
2017-09-12T11:13:25.623Z,1001.66
2017-09-12T11:14:25.665Z,1001.7
2017-09-12T11:15:25.710Z,1001.73
2017-09-12T11:16:25.736Z,1001.74
2017-09-12T11:17:25.772Z,1001.68
2017-09-12T11:18:25.809Z,1001.75
2017-09-12T11:19:25.870Z,1001.77
2017-09-12T11:20:25.914Z,1001.75
2017-09-12T11:21:25.919Z,1001.76
2017-09-12T11:22:26.335Z,1001.76
2017-09-12T11:23:26.380Z,1001.79
2017-09-12T11:24:26.742Z,1001.78
2017-09-12T11:25:27.119Z,1001.78
2017-09-12T11:26:27.163Z,1001.82
2017-09-12T11:27:27.187Z,1001.86
2017-09-12T11:28:27.570Z,1001.86
2017-09-12T11:29:27.612Z,1001.88
2017-09-12T11:30:27.667Z,1001.93
2017-09-12T11:31:27.686Z,1001.86
2017-09-12T11:32:27.741Z,1001.84
2017-09-12T11:33:27.774Z,1001.81
2017-09-12T11:34:27.810Z,1001.8
2017-09-12T11:35:28.122Z,1001.82
2017-09-12T11:36:28.181Z,1001.86
2017-09-12T11:37:28.569Z,1001.89
2017-09-12T11:38:28.581Z,1001.9
2017-09-12T11:39:28.619Z,1001.94
2017-09-12T11:40:28.655Z,1002
2017-09-12T11:41:28.685Z,1001.96
2017-09-12T11:42:29.050Z,1001.98
2017-09-12T11:43:29.068Z,1001.96
2017-09-12T11:44:29.492Z,1002
2017-09-12T11:45:29.736Z,1002
2017-09-12T11:46:29.504Z,1002.05
2017-09-12T11:47:29.537Z,1002.05
2017-09-12T11:48:29.579Z,1002.01
2017-09-12T11:49:29.624Z,1002.04
2017-09-12T11:50:30.028Z,1002.05
2017-09-12T11:51:30.090Z,1001.98
2017-09-12T11:52:30.132Z,1001.96
2017-09-12T11:53:30.151Z,1001.91
2017-09-12T11:54:30.178Z,1001.95
2017-09-12T11:55:30.209Z,1002
2017-09-12T11:56:30.686Z,1001.93
2017-09-12T11:57:30.697Z,1001.85
2017-09-12T11:58:30.736Z,1001.9
2017-09-12T11:59:31.051Z,1001.85
2017-09-12T12:00:31.114Z,1001.85
2017-09-12T12:01:31.448Z,1001.87
2017-09-12T12:02:31.487Z,1001.86
2017-09-12T12:03:32.014Z,1001.89
2017-09-12T12:04:32.023Z,1001.87
2017-09-12T12:05:32.096Z,1001.89
2017-09-12T12:06:32.098Z,1001.93
2017-09-12T12:07:32.136Z,1001.91
2017-09-12T12:08:32.188Z,1001.87
2017-09-12T12:09:32.587Z,1001.88
2017-09-12T12:10:32.612Z,1001.89
2017-09-12T12:11:32.968Z,1001.93
2017-09-12T12:12:33.005Z,1001.94
2017-09-12T12:13:33.049Z,1001.96
2017-09-12T12:14:33.077Z,1002.01
2017-09-12T12:15:33.116Z,1001.95
2017-09-12T12:16:33.172Z,1002
2017-09-12T12:17:33.187Z,1001.95
2017-09-12T12:18:33.241Z,1001.91
2017-09-12T12:19:33.600Z,1001.87